sensor_id;sensor_type;location;lat;lon;timestamp;P1;durP1;ratioP1;P2;durP2;ratioP2
3817;SDS011;1924;48.078;11.516;2023-01-06T00:01:23;27.00;;;0.70;;
3817;SDS011;1924;48.078;11.516;2023-01-06T00:03:50;27.10;;;0.70;;
3817;SDS011;1924;48.078;11.516;2023-01-06T00:06:19;27.00;;;0.73;;
3817;SDS011;1924;48.078;11.516;2023-01-06T00:08:51;27.10;;;0.70;;
3817;SDS011;1924;48.078;11.516;2023-01-06T00:11:18;26.90;;;0.70;;
3817;SDS011;1924;48.078;11.516;2023-01-06T00:13:44;26.90;;;0.70;;
3817;SDS011;1924;48.078;11.516;2023-01-06T00:16:13;26.90;;;0.70;;
3817;SDS011;1924;48.078;11.516;2023-01-06T00:18:41;26.90;;;0.70;;
3817;SDS011;1924;48.078;11.516;2023-01-06T00:21:08;26.80;;;0.70;;
3817;SDS011;1924;48.078;11.516;2023-01-06T00:23:36;27.00;;;0.70;;
3817;SDS011;1924;48.078;11.516;2023-01-06T00:26:04;26.80;;;0.70;;
3817;SDS011;1924;48.078;11.516;2023-01-06T00:28:32;26.97;;;0.70;;
3817;SDS011;1924;48.078;11.516;2023-01-06T00:31:03;26.97;;;0.70;;
3817;SDS011;1924;48.078;11.516;2023-01-06T00:33:32;26.70;;;0.70;;
3817;SDS011;1924;48.078;11.516;2023-01-06T00:35:59;26.80;;;0.73;;
3817;SDS011;1924;48.078;11.516;2023-01-06T00:38:26;26.90;;;0.70;;
3817;SDS011;1924;48.078;11.516;2023-01-06T00:40:53;26.90;;;0.70;;
3817;SDS011;1924;48.078;11.516;2023-01-06T00:43:19;26.90;;;0.70;;
3817;SDS011;1924;48.078;11.516;2023-01-06T00:45:46;26.90;;;0.80;;
3817;SDS011;1924;48.078;11.516;2023-01-06T00:48:13;26.90;;;0.80;;
3817;SDS011;1924;48.078;11.516;2023-01-06T00:50:41;26.80;;;0.77;;
3817;SDS011;1924;48.078;11.516;2023-01-06T00:53:07;26.90;;;0.70;;
3817;SDS011;1924;48.078;11.516;2023-01-06T00:55:34;27.00;;;0.73;;
3817;SDS011;1924;48.078;11.516;2023-01-06T00:58:01;26.90;;;0.80;;
3817;SDS011;1924;48.078;11.516;2023-01-06T01:00:27;26.57;;;0.70;;
3817;SDS011;1924;48.078;11.516;2023-01-06T01:02:54;26.90;;;0.80;;
3817;SDS011;1924;48.078;11.516;2023-01-06T01:05:21;26.80;;;0.70;;
3817;SDS011;1924;48.078;11.516;2023-01-06T01:07:49;26.80;;;0.80;;
3817;SDS011;1924;48.078;11.516;2023-01-06T01:10:16;26.90;;;0.70;;
3817;SDS011;1924;48.078;11.516;2023-01-06T01:12:42;26.80;;;0.80;;
3817;SDS011;1924;48.078;11.516;2023-01-06T01:15:09;27.00;;;0.77;;
3817;SDS011;1924;48.078;11.516;2023-01-06T01:17:36;26.80;;;0.70;;
3817;SDS011;1924;48.078;11.516;2023-01-06T01:20:05;27.10;;;0.80;;
3817;SDS011;1924;48.078;11.516;2023-01-06T01:22:33;26.83;;;0.73;;
3817;SDS011;1924;48.078;11.516;2023-01-06T01:25:01;26.87;;;0.70;;
3817;SDS011;1924;48.078;11.516;2023-01-06T01:27:28;27.00;;;0.80;;
3817;SDS011;1924;48.078;11.516;2023-01-06T01:29:54;27.07;;;0.70;;
3817;SDS011;1924;48.078;11.516;2023-01-06T01:32:21;26.87;;;0.77;;
3817;SDS011;1924;48.078;11.516;2023-01-06T01:34:48;26.97;;;0.73;;
3817;SDS011;1924;48.078;11.516;2023-01-06T01:37:14;27.00;;;0.80;;
3817;SDS011;1924;48.078;11.516;2023-01-06T01:39:41;27.00;;;0.70;;
3817;SDS011;1924;48.078;11.516;2023-01-06T01:42:12;27.00;;;0.70;;
3817;SDS011;1924;48.078;11.516;2023-01-06T01:47:34;26.80;;;0.80;;
3817;SDS011;1924;48.078;11.516;2023-01-06T01:50:10;26.73;;;0.70;;
3817;SDS011;1924;48.078;11.516;2023-01-06T01:52:42;27.10;;;0.80;;
3817;SDS011;1924;48.078;11.516;2023-01-06T01:55:10;27.00;;;0.80;;
3817;SDS011;1924;48.078;11.516;2023-01-06T01:57:41;27.00;;;0.77;;
3817;SDS011;1924;48.078;11.516;2023-01-06T02:00:12;27.00;;;0.70;;
3817;SDS011;1924;48.078;11.516;2023-01-06T02:02:39;27.10;;;0.80;;
3817;SDS011;1924;48.078;11.516;2023-01-06T02:05:07;27.00;;;0.80;;
3817;SDS011;1924;48.078;11.516;2023-01-06T02:07:36;27.10;;;0.80;;
3817;SDS011;1924;48.078;11.516;2023-01-06T02:10:04;27.17;;;0.80;;
3817;SDS011;1924;48.078;11.516;2023-01-06T02:12:35;27.20;;;0.70;;
3817;SDS011;1924;48.078;11.516;2023-01-06T02:15:05;27.10;;;0.80;;
3817;SDS011;1924;48.078;11.516;2023-01-06T02:17:48;26.90;;;0.80;;
3817;SDS011;1924;48.078;11.516;2023-01-06T02:20:28;27.20;;;0.77;;
3817;SDS011;1924;48.078;11.516;2023-01-06T02:23:27;27.07;;;0.80;;
3817;SDS011;1924;48.078;11.516;2023-01-06T02:26:26;27.00;;;0.80;;
3817;SDS011;1924;48.078;11.516;2023-01-06T02:32:39;27.10;;;0.80;;
3817;SDS011;1924;48.078;11.516;2023-01-06T02:38:06;27.20;;;0.80;;
3817;SDS011;1924;48.078;11.516;2023-01-06T02:40:46;27.20;;;0.80;;
3817;SDS011;1924;48.078;11.516;2023-01-06T02:43:24;27.20;;;0.80;;
3817;SDS011;1924;48.078;11.516;2023-01-06T02:45:55;27.20;;;0.77;;
3817;SDS011;1924;48.078;11.516;2023-01-06T02:48:31;27.10;;;0.80;;
3817;SDS011;1924;48.078;11.516;2023-01-06T02:51:05;27.20;;;0.80;;
3817;SDS011;1924;48.078;11.516;2023-01-06T02:53:40;27.20;;;0.80;;
3817;SDS011;1924;48.078;11.516;2023-01-06T02:56:13;27.00;;;0.80;;
3817;SDS011;1924;48.078;11.516;2023-01-06T02:58:41;27.10;;;0.80;;
3817;SDS011;1924;48.078;11.516;2023-01-06T03:01:14;27.10;;;0.80;;
3817;SDS011;1924;48.078;11.516;2023-01-06T03:03:47;27.03;;;0.80;;
3817;SDS011;1924;48.078;11.516;2023-01-06T03:06:16;27.00;;;0.80;;
3817;SDS011;1924;48.078;11.516;2023-01-06T05:01:48;26.90;;;0.80;;
3817;SDS011;1924;48.078;11.516;2023-01-06T05:04:14;26.90;;;0.80;;
3817;SDS011;1924;48.078;11.516;2023-01-06T05:06:41;26.90;;;0.80;;
3817;SDS011;1924;48.078;11.516;2023-01-06T05:09:08;26.60;;;0.80;;
3817;SDS011;1924;48.078;11.516;2023-01-06T05:11:35;26.90;;;0.80;;
3817;SDS011;1924;48.078;11.516;2023-01-06T05:14:03;26.80;;;0.80;;
3817;SDS011;1924;48.078;11.516;2023-01-06T05:16:30;26.80;;;0.80;;
3817;SDS011;1924;48.078;11.516;2023-01-06T05:19:00;26.80;;;0.80;;
3817;SDS011;1924;48.078;11.516;2023-01-06T05:21:28;26.90;;;0.80;;
3817;SDS011;1924;48.078;11.516;2023-01-06T05:23:55;26.50;;;0.80;;
3817;SDS011;1924;48.078;11.516;2023-01-06T05:26:23;26.60;;;0.80;;
3817;SDS011;1924;48.078;11.516;2023-01-06T05:28:51;26.70;;;0.80;;
3817;SDS011;1924;48.078;11.516;2023-01-06T05:31:18;26.90;;;0.80;;
3817;SDS011;1924;48.078;11.516;2023-01-06T05:33:45;26.73;;;0.80;;
3817;SDS011;1924;48.078;11.516;2023-01-06T05:36:14;26.90;;;0.80;;
3817;SDS011;1924;48.078;11.516;2023-01-06T05:38:42;26.90;;;0.80;;
3817;SDS011;1924;48.078;11.516;2023-01-06T05:41:09;26.70;;;0.80;;
3817;SDS011;1924;48.078;11.516;2023-01-06T05:43:36;26.80;;;0.80;;
3817;SDS011;1924;48.078;11.516;2023-01-06T05:46:03;26.60;;;0.80;;
3817;SDS011;1924;48.078;11.516;2023-01-06T05:48:31;26.70;;;0.80;;
3817;SDS011;1924;48.078;11.516;2023-01-06T05:51:01;26.70;;;0.80;;
3817;SDS011;1924;48.078;11.516;2023-01-06T05:53:31;26.80;;;0.80;;
3817;SDS011;1924;48.078;11.516;2023-01-06T05:56:00;26.73;;;0.80;;
3817;SDS011;1924;48.078;11.516;2023-01-06T05:58:27;26.60;;;0.80;;
3817;SDS011;1924;48.078;11.516;2023-01-06T06:00:54;26.60;;;0.80;;
3817;SDS011;1924;48.078;11.516;2023-01-06T06:03:20;26.70;;;0.80;;
3817;SDS011;1924;48.078;11.516;2023-01-06T06:05:47;26.50;;;0.80;;
3817;SDS011;1924;48.078;11.516;2023-01-06T06:08:14;26.70;;;0.80;;
3817;SDS011;1924;48.078;11.516;2023-01-06T06:10:42;26.60;;;0.80;;
3817;SDS011;1924;48.078;11.516;2023-01-06T06:13:09;26.70;;;0.80;;
3817;SDS011;1924;48.078;11.516;2023-01-06T06:15:36;26.60;;;0.80;;
3817;SDS011;1924;48.078;11.516;2023-01-06T06:18:02;26.60;;;0.80;;
3817;SDS011;1924;48.078;11.516;2023-01-06T06:20:30;26.70;;;0.80;;
3817;SDS011;1924;48.078;11.516;2023-01-06T06:22:56;26.50;;;0.80;;
3817;SDS011;1924;48.078;11.516;2023-01-06T06:25:23;26.70;;;0.80;;
3817;SDS011;1924;48.078;11.516;2023-01-06T06:27:51;26.70;;;0.80;;
3817;SDS011;1924;48.078;11.516;2023-01-06T06:30:22;26.63;;;0.80;;
3817;SDS011;1924;48.078;11.516;2023-01-06T06:32:49;26.60;;;0.80;;
3817;SDS011;1924;48.078;11.516;2023-01-06T06:35:16;26.57;;;0.80;;
3817;SDS011;1924;48.078;11.516;2023-01-06T06:37:42;26.70;;;0.80;;
3817;SDS011;1924;48.078;11.516;2023-01-06T06:40:09;26.60;;;0.80;;
3817;SDS011;1924;48.078;11.516;2023-01-06T06:42:37;26.60;;;0.80;;
3817;SDS011;1924;48.078;11.516;2023-01-06T06:45:05;26.50;;;0.80;;
3817;SDS011;1924;48.078;11.516;2023-01-06T06:47:33;26.60;;;0.80;;
3817;SDS011;1924;48.078;11.516;2023-01-06T06:50:00;26.60;;;0.80;;
3817;SDS011;1924;48.078;11.516;2023-01-06T06:52:27;26.50;;;0.80;;
3817;SDS011;1924;48.078;11.516;2023-01-06T06:54:53;26.50;;;0.80;;
3817;SDS011;1924;48.078;11.516;2023-01-06T06:57:20;26.70;;;0.80;;
3817;SDS011;1924;48.078;11.516;2023-01-06T06:59:47;26.70;;;0.80;;
3817;SDS011;1924;48.078;11.516;2023-01-06T07:02:15;26.57;;;0.80;;
3817;SDS011;1924;48.078;11.516;2023-01-06T07:04:42;26.60;;;0.80;;
3817;SDS011;1924;48.078;11.516;2023-01-06T07:07:08;26.60;;;0.80;;
3817;SDS011;1924;48.078;11.516;2023-01-06T07:09:35;26.60;;;0.80;;
3817;SDS011;1924;48.078;11.516;2023-01-06T07:12:02;26.40;;;0.80;;
3817;SDS011;1924;48.078;11.516;2023-01-06T07:14:29;26.50;;;0.80;;
3817;SDS011;1924;48.078;11.516;2023-01-06T07:16:58;26.60;;;0.80;;
3817;SDS011;1924;48.078;11.516;2023-01-06T07:19:26;26.60;;;0.80;;
3817;SDS011;1924;48.078;11.516;2023-01-06T07:21:53;26.60;;;0.80;;
3817;SDS011;1924;48.078;11.516;2023-01-06T07:24:20;26.40;;;0.80;;
3817;SDS011;1924;48.078;11.516;2023-01-06T07:26:46;26.50;;;0.80;;
3817;SDS011;1924;48.078;11.516;2023-01-06T07:29:13;26.40;;;0.80;;
3817;SDS011;1924;48.078;11.516;2023-01-06T07:31:40;26.50;;;0.80;;
3817;SDS011;1924;48.078;11.516;2023-01-06T07:34:07;26.20;;;0.80;;
3817;SDS011;1924;48.078;11.516;2023-01-06T07:36:35;26.50;;;0.80;;
3817;SDS011;1924;48.078;11.516;2023-01-06T07:39:01;26.50;;;0.80;;
3817;SDS011;1924;48.078;11.516;2023-01-06T07:41:29;26.30;;;0.80;;
3817;SDS011;1924;48.078;11.516;2023-01-06T07:43:56;26.50;;;0.80;;
3817;SDS011;1924;48.078;11.516;2023-01-06T07:46:23;26.40;;;0.80;;
3817;SDS011;1924;48.078;11.516;2023-01-06T07:48:49;26.50;;;0.80;;
3817;SDS011;1924;48.078;11.516;2023-01-06T07:51:16;26.50;;;0.80;;
3817;SDS011;1924;48.078;11.516;2023-01-06T07:53:44;26.40;;;0.80;;
3817;SDS011;1924;48.078;11.516;2023-01-06T07:56:11;26.40;;;0.80;;
3817;SDS011;1924;48.078;11.516;2023-01-06T07:58:37;26.50;;;0.80;;
3817;SDS011;1924;48.078;11.516;2023-01-06T08:01:04;26.40;;;0.80;;
3817;SDS011;1924;48.078;11.516;2023-01-06T08:03:31;26.40;;;0.80;;
3817;SDS011;1924;48.078;11.516;2023-01-06T08:08:23;26.40;;;0.80;;
3817;SDS011;1924;48.078;11.516;2023-01-06T08:10:51;26.57;;;0.80;;
3817;SDS011;1924;48.078;11.516;2023-01-06T08:13:18;26.40;;;0.80;;
3817;SDS011;1924;48.078;11.516;2023-01-06T08:15:45;26.40;;;0.80;;
3817;SDS011;1924;48.078;11.516;2023-01-06T08:18:15;26.50;;;0.80;;
3817;SDS011;1924;48.078;11.516;2023-01-06T08:20:42;26.50;;;0.80;;
3817;SDS011;1924;48.078;11.516;2023-01-06T08:23:09;26.40;;;0.80;;
3817;SDS011;1924;48.078;11.516;2023-01-06T08:25:35;26.30;;;0.80;;
3817;SDS011;1924;48.078;11.516;2023-01-06T08:28:04;26.40;;;0.80;;
3817;SDS011;1924;48.078;11.516;2023-01-06T08:30:30;26.40;;;0.80;;
3817;SDS011;1924;48.078;11.516;2023-01-06T08:33:03;26.40;;;0.80;;
3817;SDS011;1924;48.078;11.516;2023-01-06T08:35:30;26.30;;;0.80;;
3817;SDS011;1924;48.078;11.516;2023-01-06T08:37:57;26.40;;;0.80;;
3817;SDS011;1924;48.078;11.516;2023-01-06T08:40:24;26.30;;;0.80;;
3817;SDS011;1924;48.078;11.516;2023-01-06T08:42:50;26.40;;;0.80;;
3817;SDS011;1924;48.078;11.516;2023-01-06T08:45:18;26.30;;;0.80;;
3817;SDS011;1924;48.078;11.516;2023-01-06T08:47:45;26.20;;;0.80;;
3817;SDS011;1924;48.078;11.516;2023-01-06T08:50:12;26.47;;;0.80;;
3817;SDS011;1924;48.078;11.516;2023-01-06T08:52:38;26.40;;;0.80;;
3817;SDS011;1924;48.078;11.516;2023-01-06T08:55:05;26.50;;;0.80;;
3817;SDS011;1924;48.078;11.516;2023-01-06T08:57:32;26.47;;;0.80;;
3817;SDS011;1924;48.078;11.516;2023-01-06T08:59:59;26.20;;;0.80;;
3817;SDS011;1924;48.078;11.516;2023-01-06T09:02:27;26.20;;;0.80;;
3817;SDS011;1924;48.078;11.516;2023-01-06T09:04:55;26.30;;;0.80;;
3817;SDS011;1924;48.078;11.516;2023-01-06T09:07:22;26.57;;;0.80;;
3817;SDS011;1924;48.078;11.516;2023-01-06T09:09:49;26.40;;;0.80;;
3817;SDS011;1924;48.078;11.516;2023-01-06T09:12:15;26.40;;;0.80;;
3817;SDS011;1924;48.078;11.516;2023-01-06T09:14:42;26.60;;;0.80;;
3817;SDS011;1924;48.078;11.516;2023-01-06T09:17:09;26.60;;;0.80;;
3817;SDS011;1924;48.078;11.516;2023-01-06T09:19:37;26.40;;;0.80;;
3817;SDS011;1924;48.078;11.516;2023-01-06T09:22:03;26.57;;;0.80;;
3817;SDS011;1924;48.078;11.516;2023-01-06T09:24:31;26.60;;;0.80;;
3817;SDS011;1924;48.078;11.516;2023-01-06T09:26:57;26.70;;;0.80;;
3817;SDS011;1924;48.078;11.516;2023-01-06T09:29:24;26.60;;;0.80;;
3817;SDS011;1924;48.078;11.516;2023-01-06T09:31:51;26.70;;;0.80;;
3817;SDS011;1924;48.078;11.516;2023-01-06T09:34:18;26.80;;;0.80;;
3817;SDS011;1924;48.078;11.516;2023-01-06T09:36:46;26.40;;;0.80;;
3817;SDS011;1924;48.078;11.516;2023-01-06T09:39:12;26.80;;;0.80;;
3817;SDS011;1924;48.078;11.516;2023-01-06T09:41:42;26.77;;;0.70;;
3817;SDS011;1924;48.078;11.516;2023-01-06T09:44:18;26.90;;;0.80;;
3817;SDS011;1924;48.078;11.516;2023-01-06T09:46:48;27.00;;;0.77;;
3817;SDS011;1924;48.078;11.516;2023-01-06T09:49:19;26.70;;;0.80;;
3817;SDS011;1924;48.078;11.516;2023-01-06T09:51:52;26.70;;;0.70;;
3817;SDS011;1924;48.078;11.516;2023-01-06T09:54:21;26.90;;;0.80;;
3817;SDS011;1924;48.078;11.516;2023-01-06T09:56:52;26.80;;;0.70;;
3817;SDS011;1924;48.078;11.516;2023-01-06T09:59:26;26.57;;;0.70;;
3817;SDS011;1924;48.078;11.516;2023-01-06T10:01:55;26.80;;;0.77;;
3817;SDS011;1924;48.078;11.516;2023-01-06T10:04:24;26.90;;;0.80;;
3817;SDS011;1924;48.078;11.516;2023-01-06T10:06:57;26.80;;;0.70;;
3817;SDS011;1924;48.078;11.516;2023-01-06T10:09:36;26.60;;;0.80;;
3817;SDS011;1924;48.078;11.516;2023-01-06T10:12:12;26.90;;;0.73;;
3817;SDS011;1924;48.078;11.516;2023-01-06T10:14:49;26.70;;;0.80;;
3817;SDS011;1924;48.078;11.516;2023-01-06T10:17:29;26.70;;;0.80;;
3817;SDS011;1924;48.078;11.516;2023-01-06T10:20:27;26.90;;;0.70;;
3817;SDS011;1924;48.078;11.516;2023-01-06T10:23:05;26.77;;;0.80;;
3817;SDS011;1924;48.078;11.516;2023-01-06T10:25:40;26.80;;;0.80;;
3817;SDS011;1924;48.078;11.516;2023-01-06T10:28:12;26.90;;;0.77;;
3817;SDS011;1924;48.078;11.516;2023-01-06T10:30:45;26.80;;;0.80;;
3817;SDS011;1924;48.078;11.516;2023-01-06T10:33:16;26.80;;;0.70;;
3817;SDS011;1924;48.078;11.516;2023-01-06T10:35:48;27.00;;;0.77;;
3817;SDS011;1924;48.078;11.516;2023-01-06T10:38:16;26.80;;;0.70;;
3817;SDS011;1924;48.078;11.516;2023-01-06T10:40:46;27.00;;;0.73;;
3817;SDS011;1924;48.078;11.516;2023-01-06T10:43:13;26.90;;;0.80;;
3817;SDS011;1924;48.078;11.516;2023-01-06T10:45:41;26.80;;;0.70;;
3817;SDS011;1924;48.078;11.516;2023-01-06T10:48:10;26.90;;;0.70;;
3817;SDS011;1924;48.078;11.516;2023-01-06T10:50:38;26.70;;;0.70;;
3817;SDS011;1924;48.078;11.516;2023-01-06T10:53:05;26.90;;;0.70;;
3817;SDS011;1924;48.078;11.516;2023-01-06T10:55:38;26.97;;;0.70;;
3817;SDS011;1924;48.078;11.516;2023-01-06T10:58:10;26.90;;;0.70;;
3817;SDS011;1924;48.078;11.516;2023-01-06T11:00:54;26.90;;;0.70;;
3817;SDS011;1924;48.078;11.516;2023-01-06T11:03:23;26.80;;;0.70;;
3817;SDS011;1924;48.078;11.516;2023-01-06T11:05:57;26.80;;;0.80;;
3817;SDS011;1924;48.078;11.516;2023-01-06T11:08:29;26.70;;;0.70;;
3817;SDS011;1924;48.078;11.516;2023-01-06T11:10:58;26.90;;;0.70;;
3817;SDS011;1924;48.078;11.516;2023-01-06T11:13:27;26.80;;;0.70;;
3817;SDS011;1924;48.078;11.516;2023-01-06T11:15:56;26.70;;;0.70;;
3817;SDS011;1924;48.078;11.516;2023-01-06T11:18:25;26.80;;;0.70;;
3817;SDS011;1924;48.078;11.516;2023-01-06T11:21:00;26.90;;;0.73;;
3817;SDS011;1924;48.078;11.516;2023-01-06T11:23:28;26.90;;;0.77;;
3817;SDS011;1924;48.078;11.516;2023-01-06T11:26:00;26.60;;;0.70;;
3817;SDS011;1924;48.078;11.516;2023-01-06T11:28:28;26.90;;;0.70;;
3817;SDS011;1924;48.078;11.516;2023-01-06T11:30:57;26.90;;;0.80;;
3817;SDS011;1924;48.078;11.516;2023-01-06T11:33:27;26.90;;;0.70;;
3817;SDS011;1924;48.078;11.516;2023-01-06T11:35:55;26.80;;;0.70;;
3817;SDS011;1924;48.078;11.516;2023-01-06T11:38:23;26.90;;;0.70;;
3817;SDS011;1924;48.078;11.516;2023-01-06T11:40:51;26.77;;;0.70;;
3817;SDS011;1924;48.078;11.516;2023-01-06T11:43:20;26.70;;;0.70;;
3817;SDS011;1924;48.078;11.516;2023-01-06T11:45:52;26.70;;;0.70;;
3817;SDS011;1924;48.078;11.516;2023-01-06T11:48:25;26.80;;;0.70;;
3817;SDS011;1924;48.078;11.516;2023-01-06T11:50:55;26.70;;;0.70;;
3817;SDS011;1924;48.078;11.516;2023-01-06T11:53:24;26.70;;;0.70;;
3817;SDS011;1924;48.078;11.516;2023-01-06T11:55:55;26.70;;;0.70;;
3817;SDS011;1924;48.078;11.516;2023-01-06T11:58:27;26.90;;;0.77;;
3817;SDS011;1924;48.078;11.516;2023-01-06T12:01:14;26.60;;;0.80;;
3817;SDS011;1924;48.078;11.516;2023-01-06T12:03:49;26.60;;;0.70;;
3817;SDS011;1924;48.078;11.516;2023-01-06T12:06:20;26.60;;;0.70;;
3817;SDS011;1924;48.078;11.516;2023-01-06T12:08:55;26.40;;;0.70;;
3817;SDS011;1924;48.078;11.516;2023-01-06T12:11:28;26.77;;;0.73;;
3817;SDS011;1924;48.078;11.516;2023-01-06T12:14:02;26.60;;;0.70;;
3817;SDS011;1924;48.078;11.516;2023-01-06T12:16:32;26.70;;;0.70;;
3817;SDS011;1924;48.078;11.516;2023-01-06T12:19:08;26.70;;;0.70;;
3817;SDS011;1924;48.078;11.516;2023-01-06T12:21:40;26.70;;;0.70;;
3817;SDS011;1924;48.078;11.516;2023-01-06T12:24:09;26.57;;;0.70;;
3817;SDS011;1924;48.078;11.516;2023-01-06T12:26:41;26.60;;;0.80;;
3817;SDS011;1924;48.078;11.516;2023-01-06T12:29:10;26.70;;;0.70;;
3817;SDS011;1924;48.078;11.516;2023-01-06T12:31:44;26.60;;;0.70;;
3817;SDS011;1924;48.078;11.516;2023-01-06T12:34:19;26.60;;;0.70;;
3817;SDS011;1924;48.078;11.516;2023-01-06T12:36:54;26.30;;;0.70;;
3817;SDS011;1924;48.078;11.516;2023-01-06T12:39:27;26.57;;;0.70;;
3817;SDS011;1924;48.078;11.516;2023-01-06T12:42:02;26.60;;;0.80;;
3817;SDS011;1924;48.078;11.516;2023-01-06T12:44:37;26.40;;;0.80;;
3817;SDS011;1924;48.078;11.516;2023-01-06T12:47:10;26.60;;;0.70;;
3817;SDS011;1924;48.078;11.516;2023-01-06T12:49:42;26.60;;;0.70;;
3817;SDS011;1924;48.078;11.516;2023-01-06T12:52:14;26.60;;;0.70;;
3817;SDS011;1924;48.078;11.516;2023-01-06T12:54:49;26.60;;;0.70;;
3817;SDS011;1924;48.078;11.516;2023-01-06T12:57:22;26.60;;;0.70;;
3817;SDS011;1924;48.078;11.516;2023-01-06T13:00:12;26.60;;;0.70;;
3817;SDS011;1924;48.078;11.516;2023-01-06T13:03:09;26.57;;;0.70;;
3817;SDS011;1924;48.078;11.516;2023-01-06T13:05:55;26.50;;;0.70;;
3817;SDS011;1924;48.078;11.516;2023-01-06T13:08:35;26.70;;;0.70;;
3817;SDS011;1924;48.078;11.516;2023-01-06T13:11:15;26.70;;;0.70;;
3817;SDS011;1924;48.078;11.516;2023-01-06T13:13:50;26.50;;;0.70;;
3817;SDS011;1924;48.078;11.516;2023-01-06T13:16:28;26.50;;;0.70;;
3817;SDS011;1924;48.078;11.516;2023-01-06T13:19:07;26.60;;;0.70;;
3817;SDS011;1924;48.078;11.516;2023-01-06T13:21:43;26.60;;;0.73;;
3817;SDS011;1924;48.078;11.516;2023-01-06T13:30:14;26.40;;;0.80;;
3817;SDS011;1924;48.078;11.516;2023-01-06T13:32:58;26.57;;;0.70;;
3817;SDS011;1924;48.078;11.516;2023-01-06T13:35:44;26.50;;;0.70;;
3817;SDS011;1924;48.078;11.516;2023-01-06T13:38:40;26.50;;;0.80;;
3817;SDS011;1924;48.078;11.516;2023-01-06T13:41:15;26.57;;;0.80;;
3817;SDS011;1924;48.078;11.516;2023-01-06T13:43:46;26.57;;;0.70;;
3817;SDS011;1924;48.078;11.516;2023-01-06T13:46:16;26.60;;;0.70;;
3817;SDS011;1924;48.078;11.516;2023-01-06T13:48:47;26.40;;;0.80;;
3817;SDS011;1924;48.078;11.516;2023-01-06T13:51:18;26.50;;;0.70;;
3817;SDS011;1924;48.078;11.516;2023-01-06T13:53:48;26.50;;;0.70;;
3817;SDS011;1924;48.078;11.516;2023-01-06T13:56:27;26.50;;;0.73;;
3817;SDS011;1924;48.078;11.516;2023-01-06T13:59:15;26.40;;;0.77;;
3817;SDS011;1924;48.078;11.516;2023-01-06T14:01:47;26.50;;;0.70;;
3817;SDS011;1924;48.078;11.516;2023-01-06T14:07:30;26.50;;;0.73;;
3817;SDS011;1924;48.078;11.516;2023-01-06T14:09:58;26.40;;;0.70;;
3817;SDS011;1924;48.078;11.516;2023-01-06T14:12:26;26.40;;;0.70;;
3817;SDS011;1924;48.078;11.516;2023-01-06T14:14:54;26.40;;;0.70;;
3817;SDS011;1924;48.078;11.516;2023-01-06T14:22:41;26.40;;;0.70;;
3817;SDS011;1924;48.078;11.516;2023-01-06T14:25:18;26.57;;;0.70;;
3817;SDS011;1924;48.078;11.516;2023-01-06T14:28:05;26.50;;;0.70;;
3817;SDS011;1924;48.078;11.516;2023-01-06T14:33:52;26.20;;;0.70;;
3817;SDS011;1924;48.078;11.516;2023-01-06T14:36:21;26.40;;;0.70;;
3817;SDS011;1924;48.078;11.516;2023-01-06T14:38:52;26.57;;;0.70;;
3817;SDS011;1924;48.078;11.516;2023-01-06T14:41:23;26.50;;;0.80;;
3817;SDS011;1924;48.078;11.516;2023-01-06T14:43:53;26.40;;;0.70;;
3817;SDS011;1924;48.078;11.516;2023-01-06T14:46:23;26.50;;;0.70;;
3817;SDS011;1924;48.078;11.516;2023-01-06T14:48:53;26.53;;;0.70;;
3817;SDS011;1924;48.078;11.516;2023-01-06T14:51:24;26.40;;;0.70;;
3817;SDS011;1924;48.078;11.516;2023-01-06T14:53:55;26.60;;;0.70;;
3817;SDS011;1924;48.078;11.516;2023-01-06T14:56:28;26.40;;;0.70;;
3817;SDS011;1924;48.078;11.516;2023-01-06T14:59:09;26.40;;;0.70;;
3817;SDS011;1924;48.078;11.516;2023-01-06T15:01:38;26.50;;;0.70;;
3817;SDS011;1924;48.078;11.516;2023-01-06T15:04:17;26.20;;;0.70;;
3817;SDS011;1924;48.078;11.516;2023-01-06T15:06:58;26.60;;;0.73;;
3817;SDS011;1924;48.078;11.516;2023-01-06T15:09:28;26.40;;;0.70;;
3817;SDS011;1924;48.078;11.516;2023-01-06T15:11:55;26.40;;;0.70;;
3817;SDS011;1924;48.078;11.516;2023-01-06T15:14:31;26.50;;;0.70;;
3817;SDS011;1924;48.078;11.516;2023-01-06T15:17:00;26.40;;;0.70;;
3817;SDS011;1924;48.078;11.516;2023-01-06T15:19:29;26.20;;;0.80;;
3817;SDS011;1924;48.078;11.516;2023-01-06T15:21:56;26.40;;;0.70;;
3817;SDS011;1924;48.078;11.516;2023-01-06T15:24:25;26.60;;;0.70;;
3817;SDS011;1924;48.078;11.516;2023-01-06T15:27:01;26.50;;;0.70;;
3817;SDS011;1924;48.078;11.516;2023-01-06T15:29:30;26.30;;;0.70;;
3817;SDS011;1924;48.078;11.516;2023-01-06T15:31:56;26.40;;;0.70;;
3817;SDS011;1924;48.078;11.516;2023-01-06T15:34:24;26.53;;;0.70;;
3817;SDS011;1924;48.078;11.516;2023-01-06T15:36:59;26.53;;;0.73;;
3817;SDS011;1924;48.078;11.516;2023-01-06T15:39:28;26.60;;;0.70;;
3817;SDS011;1924;48.078;11.516;2023-01-06T15:41:58;26.40;;;0.80;;
3817;SDS011;1924;48.078;11.516;2023-01-06T15:44:27;26.30;;;0.70;;
3817;SDS011;1924;48.078;11.516;2023-01-06T15:46:56;26.30;;;0.70;;
3817;SDS011;1924;48.078;11.516;2023-01-06T15:49:33;26.50;;;0.77;;
3817;SDS011;1924;48.078;11.516;2023-01-06T15:52:03;26.40;;;0.70;;
3817;SDS011;1924;48.078;11.516;2023-01-06T15:54:31;26.50;;;0.70;;
3817;SDS011;1924;48.078;11.516;2023-01-06T15:57:02;26.40;;;0.70;;
3817;SDS011;1924;48.078;11.516;2023-01-06T15:59:35;26.40;;;0.70;;
3817;SDS011;1924;48.078;11.516;2023-01-06T16:02:03;26.40;;;0.70;;
3817;SDS011;1924;48.078;11.516;2023-01-06T16:04:30;26.20;;;0.73;;
3817;SDS011;1924;48.078;11.516;2023-01-06T16:06:57;26.30;;;0.80;;
3817;SDS011;1924;48.078;11.516;2023-01-06T16:09:47;26.50;;;0.70;;
3817;SDS011;1924;48.078;11.516;2023-01-06T16:12:16;26.40;;;0.70;;
3817;SDS011;1924;48.078;11.516;2023-01-06T16:14:45;26.40;;;0.70;;
3817;SDS011;1924;48.078;11.516;2023-01-06T16:17:15;26.40;;;0.80;;
3817;SDS011;1924;48.078;11.516;2023-01-06T16:19:49;26.40;;;0.80;;
3817;SDS011;1924;48.078;11.516;2023-01-06T16:22:24;26.47;;;0.70;;
3817;SDS011;1924;48.078;11.516;2023-01-06T16:24:58;26.40;;;0.80;;
3817;SDS011;1924;48.078;11.516;2023-01-06T16:27:27;26.50;;;0.70;;
3817;SDS011;1924;48.078;11.516;2023-01-06T16:32:50;26.40;;;0.70;;
3817;SDS011;1924;48.078;11.516;2023-01-06T16:35:19;26.20;;;0.70;;
3817;SDS011;1924;48.078;11.516;2023-01-06T16:37:48;26.40;;;0.70;;
3817;SDS011;1924;48.078;11.516;2023-01-06T16:40:16;26.27;;;0.70;;
3817;SDS011;1924;48.078;11.516;2023-01-06T16:42:45;26.40;;;0.80;;
3817;SDS011;1924;48.078;11.516;2023-01-06T16:45:18;26.30;;;0.70;;
3817;SDS011;1924;48.078;11.516;2023-01-06T16:47:49;26.30;;;0.70;;
3817;SDS011;1924;48.078;11.516;2023-01-06T16:50:17;26.30;;;0.70;;
3817;SDS011;1924;48.078;11.516;2023-01-06T16:52:47;26.40;;;0.70;;
3817;SDS011;1924;48.078;11.516;2023-01-06T16:55:17;26.40;;;0.70;;
3817;SDS011;1924;48.078;11.516;2023-01-06T16:57:47;26.20;;;0.70;;
3817;SDS011;1924;48.078;11.516;2023-01-06T17:00:15;26.30;;;0.70;;
3817;SDS011;1924;48.078;11.516;2023-01-06T17:02:44;26.50;;;0.70;;
3817;SDS011;1924;48.078;11.516;2023-01-06T17:05:16;26.33;;;0.70;;
3817;SDS011;1924;48.078;11.516;2023-01-06T17:07:49;26.40;;;0.70;;
3817;SDS011;1924;48.078;11.516;2023-01-06T17:10:18;26.40;;;0.70;;
3817;SDS011;1924;48.078;11.516;2023-01-06T17:12:49;26.30;;;0.70;;
3817;SDS011;1924;48.078;11.516;2023-01-06T17:15:36;26.27;;;0.80;;
3817;SDS011;1924;48.078;11.516;2023-01-06T17:18:04;26.30;;;0.80;;
3817;SDS011;1924;48.078;11.516;2023-01-06T17:20:50;26.30;;;0.80;;
3817;SDS011;1924;48.078;11.516;2023-01-06T17:23:19;26.10;;;0.70;;
3817;SDS011;1924;48.078;11.516;2023-01-06T17:25:46;26.17;;;0.80;;
3817;SDS011;1924;48.078;11.516;2023-01-06T17:28:16;26.17;;;0.73;;
3817;SDS011;1924;48.078;11.516;2023-01-06T17:30:45;26.30;;;0.70;;
3817;SDS011;1924;48.078;11.516;2023-01-06T17:33:12;26.20;;;0.70;;